createdAt,value
2018-07-04T00:00:04.407Z,0
2018-07-04T00:00:45.468Z,0
2018-07-04T00:01:27.570Z,0
2018-07-04T00:02:09.609Z,0
2018-07-04T00:02:50.578Z,0
2018-07-04T00:03:31.636Z,0
2018-07-04T00:04:12.714Z,0
2018-07-04T00:04:53.764Z,0
2018-07-04T00:05:34.869Z,0
2018-07-04T00:06:18.142Z,0
2018-07-04T00:06:59.183Z,0
2018-07-04T00:07:40.217Z,0
2018-07-04T00:08:21.378Z,0
2018-07-04T00:09:02.496Z,0
2018-07-04T00:09:43.689Z,0
2018-07-04T00:10:24.895Z,0
2018-07-04T00:11:06.016Z,0
2018-07-04T00:11:46.941Z,0
2018-07-04T00:12:27.919Z,0
2018-07-04T00:13:08.922Z,0
2018-07-04T00:13:50.758Z,0
2018-07-04T00:14:33.787Z,0
2018-07-04T00:15:14.972Z,0
2018-07-04T00:15:56.083Z,0
2018-07-04T00:16:37.054Z,0
2018-07-04T00:17:18.205Z,0
2018-07-04T00:18:00.102Z,0
2018-07-04T00:18:40.893Z,0
2018-07-04T00:19:21.451Z,0
2018-07-04T00:20:02.004Z,0
2018-07-04T00:20:43.094Z,0
2018-07-04T00:21:24.286Z,0
2018-07-04T00:22:05.539Z,0
2018-07-04T00:22:47.607Z,0
2018-07-04T00:23:28.787Z,0
2018-07-04T00:24:10.294Z,0
2018-07-04T00:24:52.355Z,0
2018-07-04T00:25:33.627Z,0
2018-07-04T00:26:14.783Z,0
2018-07-04T00:26:57.821Z,0
2018-07-04T00:27:38.911Z,0
2018-07-04T00:28:20.125Z,0
2018-07-04T00:29:01.349Z,0
2018-07-04T00:29:42.345Z,0
2018-07-04T00:30:23.544Z,0
2018-07-04T00:31:05.632Z,0
2018-07-04T00:31:47.183Z,0
2018-07-04T00:32:30.325Z,0
2018-07-04T00:33:11.393Z,0
2018-07-04T00:33:52.590Z,0
2018-07-04T00:34:33.870Z,0
2018-07-04T00:35:15.050Z,0
2018-07-04T00:35:56.808Z,0
2018-07-04T00:36:38.036Z,0
2018-07-04T00:37:19.239Z,0
2018-07-04T00:38:00.422Z,0
2018-07-04T00:38:41.617Z,0
2018-07-04T00:39:22.673Z,0
2018-07-04T00:40:03.753Z,0
2018-07-04T00:40:44.862Z,0
2018-07-04T00:41:25.883Z,0
2018-07-04T00:42:06.978Z,0
2018-07-04T00:42:48.032Z,0
2018-07-04T00:43:29.614Z,0
2018-07-04T00:44:10.708Z,0
2018-07-04T00:44:52.026Z,0
2018-07-04T00:45:33.850Z,0
2018-07-04T00:46:15.887Z,0
2018-07-04T00:46:57.044Z,0
2018-07-04T00:47:39.129Z,0
2018-07-04T00:48:20.453Z,0
2018-07-04T00:49:01.701Z,0
2018-07-04T00:49:42.940Z,0
2018-07-04T00:50:24.114Z,0
2018-07-04T00:51:06.147Z,0
2018-07-04T00:51:47.328Z,0
2018-07-04T00:52:28.551Z,0
2018-07-04T00:53:09.702Z,0
2018-07-04T00:53:50.837Z,0
2018-07-04T00:54:31.911Z,0
2018-07-04T00:55:13.543Z,0
2018-07-04T00:55:55.426Z,0
2018-07-04T00:56:36.552Z,0
2018-07-04T00:57:17.617Z,0
2018-07-04T00:57:59.488Z,0
2018-07-04T00:58:40.654Z,0
2018-07-04T00:59:21.776Z,0
2018-07-04T01:00:03.382Z,0
2018-07-04T01:00:44.493Z,0
2018-07-04T01:01:25.482Z,0
2018-07-04T01:02:06.481Z,0
2018-07-04T01:02:47.427Z,0
2018-07-04T01:03:28.534Z,0
2018-07-04T01:04:09.671Z,0
2018-07-04T01:04:51.675Z,0
2018-07-04T01:05:32.744Z,0
2018-07-04T01:06:13.940Z,0
2018-07-04T01:06:54.986Z,0
2018-07-04T01:07:37.094Z,0
2018-07-04T01:08:20.914Z,0
2018-07-04T01:09:02.067Z,0
2018-07-04T01:09:42.788Z,0
2018-07-04T01:10:23.698Z,0
2018-07-04T01:11:04.687Z,0
2018-07-04T01:11:45.798Z,0
2018-07-04T01:12:26.918Z,0
2018-07-04T01:13:07.942Z,0
2018-07-04T01:13:48.921Z,0
2018-07-04T01:14:30.104Z,0
2018-07-04T01:15:11.241Z,0
2018-07-04T01:15:52.292Z,0
2018-07-04T01:16:33.446Z,0
2018-07-04T01:17:14.665Z,0
2018-07-04T01:17:56.644Z,0
2018-07-04T01:18:38.907Z,0
2018-07-04T01:19:20.087Z,0
2018-07-04T01:20:01.272Z,0
2018-07-04T01:20:42.342Z,0
2018-07-04T01:21:23.740Z,0
2018-07-04T01:22:04.998Z,0
2018-07-04T01:22:46.893Z,0
2018-07-04T01:23:28.717Z,0
2018-07-04T01:24:10.909Z,0
2018-07-04T01:24:52.103Z,0
2018-07-04T01:25:33.301Z,0
2018-07-04T01:26:14.494Z,0
2018-07-04T01:26:55.552Z,0
2018-07-04T01:27:36.646Z,0
2018-07-04T01:28:17.946Z,0
2018-07-04T01:28:59.119Z,0
2018-07-04T01:29:40.300Z,0
2018-07-04T01:30:21.551Z,0
2018-07-04T01:31:03.411Z,0
2018-07-04T01:31:45.159Z,0
2018-07-04T01:32:26.325Z,0
2018-07-04T01:33:07.477Z,0
2018-07-04T01:33:48.537Z,0
2018-07-04T01:34:29.750Z,0
2018-07-04T01:35:11.916Z,0
2018-07-04T01:35:53.124Z,0
2018-07-04T01:36:34.374Z,0
2018-07-04T01:37:15.539Z,0
2018-07-04T01:37:56.762Z,0
2018-07-04T01:38:38.010Z,0
2018-07-04T01:39:19.281Z,0
2018-07-04T01:40:00.540Z,0
2018-07-04T01:40:41.730Z,0
2018-07-04T01:41:23.384Z,0
2018-07-04T01:42:05.431Z,0
2018-07-04T01:42:46.548Z,0
2018-07-04T01:43:27.778Z,0
2018-07-04T01:44:08.970Z,0
2018-07-04T01:44:50.082Z,0
2018-07-04T01:45:31.337Z,0
2018-07-04T01:46:12.400Z,0
2018-07-04T01:46:53.487Z,0
2018-07-04T01:47:34.587Z,0
2018-07-04T01:48:16.394Z,0
2018-07-04T01:48:57.486Z,0
2018-07-04T01:49:38.646Z,0
2018-07-04T01:50:19.771Z,0
2018-07-04T01:51:01.821Z,0
2018-07-04T01:51:43.055Z,0
2018-07-04T01:52:24.085Z,0
2018-07-04T01:53:05.258Z,0
2018-07-04T01:53:46.404Z,0
2018-07-04T01:54:27.547Z,0
2018-07-04T01:55:09.600Z,0
2018-07-04T01:55:50.690Z,0
2018-07-04T01:56:32.768Z,0
2018-07-04T01:57:14.021Z,0
2018-07-04T01:57:55.301Z,0
2018-07-04T01:58:36.495Z,0
2018-07-04T01:59:17.596Z,0
2018-07-04T01:59:58.863Z,0
2018-07-04T02:00:40.123Z,0
2018-07-04T02:01:21.253Z,0
2018-07-04T02:02:03.340Z,0
2018-07-04T02:02:45.417Z,0
2018-07-04T02:03:26.465Z,0
2018-07-04T02:04:07.577Z,0
2018-07-04T02:04:48.808Z,0
2018-07-04T02:05:29.988Z,0
2018-07-04T02:06:11.142Z,0
2018-07-04T02:06:53.098Z,0
2018-07-04T02:07:34.330Z,0
2018-07-04T02:08:15.515Z,0
2018-07-04T02:08:56.745Z,0
2018-07-04T02:09:37.991Z,0
2018-07-04T02:10:19.264Z,0
2018-07-04T02:11:02.641Z,0
2018-07-04T02:11:43.757Z,0
2018-07-04T02:12:24.823Z,0
2018-07-04T02:13:06.933Z,0
2018-07-04T02:13:50.372Z,0
2018-07-04T02:14:31.526Z,0
2018-07-04T02:15:12.604Z,0
2018-07-04T02:15:53.857Z,0
2018-07-04T02:16:35.008Z,0
2018-07-04T02:17:16.897Z,0
2018-07-04T02:17:57.999Z,0
2018-07-04T02:18:39.136Z,0
2018-07-04T02:19:20.384Z,0
2018-07-04T02:20:01.654Z,0
2018-07-04T02:20:43.626Z,0
2018-07-04T02:21:25.316Z,0
2018-07-04T02:22:07.123Z,0
2018-07-04T02:22:48.382Z,0
2018-07-04T02:23:29.358Z,0
2018-07-04T02:24:10.560Z,0
2018-07-04T02:24:51.877Z,0
2018-07-04T02:25:33.215Z,0
2018-07-04T02:26:15.221Z,0
2018-07-04T02:26:58.870Z,0
2018-07-04T02:27:39.972Z,0
2018-07-04T02:28:21.144Z,0
2018-07-04T02:29:02.934Z,0
2018-07-04T02:29:45.390Z,0
2018-07-04T02:30:27.151Z,0
2018-07-04T02:31:08.210Z,0
2018-07-04T02:31:49.251Z,0
2018-07-04T02:32:30.449Z,0
2018-07-04T02:33:11.674Z,0
2018-07-04T02:33:52.896Z,0
2018-07-04T02:34:34.084Z,0
2018-07-04T02:35:15.228Z,0
2018-07-04T02:35:56.393Z,0
2018-07-04T02:36:37.451Z,0
2018-07-04T02:37:18.561Z,0
2018-07-04T02:38:00.650Z,0
2018-07-04T02:38:42.631Z,0
2018-07-04T02:39:23.847Z,0
2018-07-04T02:40:04.920Z,0
2018-07-04T02:40:46.081Z,0
2018-07-04T02:41:27.188Z,0
2018-07-04T02:42:08.279Z,0
2018-07-04T02:42:50.404Z,0
2018-07-04T02:43:32.424Z,0
2018-07-04T02:44:13.639Z,0
2018-07-04T02:44:54.755Z,0
2018-07-04T02:45:35.834Z,0
2018-07-04T02:46:16.944Z,0
2018-07-04T02:46:57.951Z,0
2018-07-04T02:47:39.931Z,0
2018-07-04T02:48:21.666Z,0
2018-07-04T02:49:03.454Z,0
2018-07-04T02:49:44.560Z,0
2018-07-04T02:50:26.380Z,0
2018-07-04T02:51:07.586Z,0
2018-07-04T02:51:49.361Z,0
2018-07-04T02:52:30.549Z,0
2018-07-04T02:53:11.808Z,0
2018-07-04T02:53:52.856Z,0
2018-07-04T02:54:34.415Z,0
2018-07-04T02:55:15.572Z,0
2018-07-04T02:55:57.083Z,0
2018-07-04T02:56:38.328Z,0
2018-07-04T02:57:21.453Z,0
2018-07-04T02:58:02.659Z,5
2018-07-04T02:58:43.886Z,5
2018-07-04T02:59:24.850Z,5
2018-07-04T03:00:05.886Z,5
2018-07-04T03:00:46.895Z,5
2018-07-04T03:01:28.361Z,5
2018-07-04T03:02:09.507Z,5
2018-07-04T03:02:50.567Z,5
2018-07-04T03:03:31.715Z,5
2018-07-04T03:04:12.964Z,5
2018-07-04T03:04:53.878Z,5
2018-07-04T03:05:34.960Z,5
2018-07-04T03:06:16.102Z,5
2018-07-04T03:06:57.208Z,5
2018-07-04T03:07:38.474Z,5
2018-07-04T03:08:19.593Z,5
2018-07-04T03:09:00.666Z,5
2018-07-04T03:09:41.888Z,5
2018-07-04T03:10:23.088Z,5
2018-07-04T03:11:04.000Z,5
2018-07-04T03:11:45.209Z,5
2018-07-04T03:12:26.394Z,5
2018-07-04T03:13:07.528Z,5
2018-07-04T03:13:49.609Z,10
2018-07-04T03:14:30.746Z,10
2018-07-04T03:15:11.843Z,10
2018-07-04T03:15:52.865Z,10
2018-07-04T03:16:34.067Z,10
2018-07-04T03:17:15.219Z,10
2018-07-04T03:17:56.424Z,10
2018-07-04T03:18:37.477Z,10
2018-07-04T03:19:18.609Z,10
2018-07-04T03:20:00.340Z,10
2018-07-04T03:20:42.446Z,10
2018-07-04T03:21:23.520Z,10
2018-07-04T03:22:04.722Z,10
2018-07-04T03:22:45.828Z,10
2018-07-04T03:23:27.059Z,10
2018-07-04T03:24:08.341Z,10
2018-07-04T03:24:49.488Z,10
2018-07-04T03:25:30.713Z,10
2018-07-04T03:26:11.966Z,15
2018-07-04T03:26:53.066Z,15
2018-07-04T03:27:34.232Z,15
2018-07-04T03:28:15.402Z,15
2018-07-04T03:28:57.033Z,15
2018-07-04T03:29:38.252Z,15
2018-07-04T03:30:20.209Z,15
2018-07-04T03:31:01.411Z,15
2018-07-04T03:31:42.667Z,15
2018-07-04T03:32:23.820Z,15
2018-07-04T03:33:04.972Z,15
2018-07-04T03:33:46.080Z,15
2018-07-04T03:34:27.231Z,15
2018-07-04T03:35:09.141Z,15
2018-07-04T03:35:50.901Z,15
2018-07-04T03:36:32.037Z,15
2018-07-04T03:37:13.233Z,15
2018-07-04T03:37:54.453Z,20
2018-07-04T03:38:35.499Z,20
2018-07-04T03:39:16.813Z,20
2018-07-04T03:39:57.999Z,20
2018-07-04T03:40:39.057Z,20
2018-07-04T03:41:20.054Z,20
2018-07-04T03:42:01.300Z,20
2018-07-04T03:42:42.398Z,20
2018-07-04T03:43:23.655Z,20
2018-07-04T03:44:04.725Z,20
2018-07-04T03:44:45.814Z,20
2018-07-04T03:45:26.664Z,20
2018-07-04T03:46:07.584Z,20
2018-07-04T03:46:48.795Z,20
2018-07-04T03:47:29.937Z,20
2018-07-04T03:48:11.114Z,20
2018-07-04T03:48:52.296Z,25
2018-07-04T03:49:34.244Z,25
2018-07-04T03:50:14.537Z,25
2018-07-04T03:50:56.184Z,25
2018-07-04T03:51:37.834Z,25
2018-07-04T03:52:19.005Z,25
2018-07-04T03:53:00.140Z,25
2018-07-04T03:53:41.051Z,25
2018-07-04T03:54:21.978Z,25
2018-07-04T03:55:02.520Z,25
2018-07-04T03:55:43.074Z,25
2018-07-04T03:56:23.641Z,25
2018-07-04T03:57:04.214Z,25
2018-07-04T03:57:44.797Z,25
2018-07-04T03:58:25.366Z,25
2018-07-04T03:59:05.940Z,30
2018-07-04T03:59:46.494Z,30
2018-07-04T04:00:27.060Z,30
2018-07-04T04:01:07.652Z,30
2018-07-04T04:01:48.230Z,30
2018-07-04T04:02:28.787Z,30
2018-07-04T04:03:09.377Z,30
2018-07-04T04:03:49.961Z,30
2018-07-04T04:04:30.532Z,30
2018-07-04T04:05:11.120Z,30
2018-07-04T04:05:51.711Z,30
2018-07-04T04:06:32.283Z,30
2018-07-04T04:07:12.905Z,30
2018-07-04T04:07:53.428Z,30
2018-07-04T04:08:33.996Z,30
2018-07-04T04:09:14.632Z,35
2018-07-04T04:09:55.199Z,35
2018-07-04T04:10:35.787Z,35
2018-07-04T04:11:16.344Z,35
2018-07-04T04:11:56.912Z,35
2018-07-04T04:12:37.477Z,35
2018-07-04T04:13:18.040Z,35
2018-07-04T04:13:58.611Z,35
2018-07-04T04:14:39.186Z,35
2018-07-04T04:15:19.740Z,35
2018-07-04T04:16:00.308Z,35
2018-07-04T04:16:40.878Z,35
2018-07-04T04:17:21.459Z,35
2018-07-04T04:18:02.028Z,35
2018-07-04T04:18:42.646Z,40
2018-07-04T04:19:23.202Z,40
2018-07-04T04:20:03.774Z,40
2018-07-04T04:20:44.337Z,40
2018-07-04T04:21:24.909Z,40
2018-07-04T04:22:05.468Z,40
2018-07-04T04:22:46.031Z,40
2018-07-04T04:23:26.652Z,40
2018-07-04T04:24:07.194Z,40
2018-07-04T04:24:48.224Z,40
2018-07-04T04:25:29.282Z,40
2018-07-04T04:26:09.855Z,40
2018-07-04T04:26:50.418Z,40
2018-07-04T04:27:30.994Z,45
2018-07-04T04:28:11.556Z,45
2018-07-04T04:28:52.132Z,45
2018-07-04T04:29:32.693Z,45
2018-07-04T04:30:13.274Z,45
2018-07-04T04:30:53.858Z,45
2018-07-04T04:31:34.405Z,45
2018-07-04T04:32:14.964Z,45
2018-07-04T04:32:55.546Z,45
2018-07-04T04:33:36.082Z,45
2018-07-04T04:34:16.650Z,45
2018-07-04T04:34:57.196Z,45
2018-07-04T04:35:37.752Z,45
2018-07-04T04:36:18.344Z,50
2018-07-04T04:36:58.891Z,50
2018-07-04T04:37:39.453Z,50
2018-07-04T04:38:20.007Z,50
2018-07-04T04:39:00.565Z,50
2018-07-04T04:39:41.135Z,50
2018-07-04T04:40:21.703Z,50
2018-07-04T04:41:02.256Z,50
2018-07-04T04:41:42.855Z,50
2018-07-04T04:42:23.447Z,50
2018-07-04T04:43:03.964Z,50
2018-07-04T04:43:44.552Z,55
2018-07-04T04:44:25.147Z,55
2018-07-04T04:45:05.697Z,55
2018-07-04T04:45:46.261Z,55
2018-07-04T04:46:26.834Z,55
2018-07-04T04:47:07.387Z,55
2018-07-04T04:47:48.021Z,55
2018-07-04T04:48:28.595Z,55
2018-07-04T04:49:09.873Z,55
2018-07-04T04:49:50.435Z,60
2018-07-04T04:50:31.000Z,60
2018-07-04T04:51:11.556Z,60
2018-07-04T04:51:52.115Z,60
2018-07-04T04:52:32.665Z,60
2018-07-04T04:53:13.231Z,60
2018-07-04T04:53:53.796Z,60
2018-07-04T04:54:34.409Z,60
2018-07-04T04:55:14.975Z,60
2018-07-04T04:55:55.547Z,60
2018-07-04T04:56:36.449Z,60
2018-07-04T04:57:17.420Z,60
2018-07-04T04:57:57.993Z,60
2018-07-04T04:58:38.561Z,60
2018-07-04T04:59:19.168Z,65
2018-07-04T04:59:59.747Z,65
2018-07-04T05:00:40.328Z,65
2018-07-04T05:01:20.905Z,65
2018-07-04T05:02:01.482Z,65
2018-07-04T05:02:42.066Z,65
2018-07-04T05:03:22.630Z,65
2018-07-04T05:04:03.192Z,70
2018-07-04T05:04:43.818Z,70
2018-07-04T05:05:24.384Z,70
2018-07-04T05:06:04.956Z,70
2018-07-04T05:06:45.508Z,75
2018-07-04T05:07:26.062Z,75
2018-07-04T05:08:06.630Z,140
2018-07-04T05:08:47.212Z,380
2018-07-04T05:09:27.785Z,710
2018-07-04T05:10:08.340Z,1025
2018-07-04T05:10:48.938Z,1195
2018-07-04T05:11:29.517Z,990
2018-07-04T05:12:10.080Z,530
2018-07-04T05:12:50.634Z,170
2018-07-04T05:13:31.195Z,80
2018-07-04T05:14:11.751Z,80
2018-07-04T05:14:52.316Z,80
2018-07-04T05:15:32.889Z,80
2018-07-04T05:16:13.445Z,85
2018-07-04T05:16:54.033Z,85
2018-07-04T05:17:34.604Z,85
2018-07-04T05:18:15.162Z,85
2018-07-04T05:18:55.722Z,135
2018-07-04T05:19:36.272Z,370
2018-07-04T05:20:16.851Z,625
2018-07-04T05:20:57.429Z,785
2018-07-04T05:21:37.980Z,865
2018-07-04T05:22:18.662Z,970
2018-07-04T05:22:59.238Z,1095
2018-07-04T05:23:39.819Z,1245
2018-07-04T05:24:20.389Z,1365
2018-07-04T05:25:00.948Z,1440
2018-07-04T05:25:41.594Z,1485
2018-07-04T05:26:22.154Z,1505
2018-07-04T05:27:02.701Z,1525
2018-07-04T05:27:43.346Z,1590
2018-07-04T05:28:23.913Z,1650
2018-07-04T05:29:04.484Z,1625
2018-07-04T05:29:45.057Z,1600
2018-07-04T05:30:25.623Z,1590
2018-07-04T05:31:06.195Z,1605
2018-07-04T05:31:46.853Z,1650
2018-07-04T05:32:27.412Z,1715
2018-07-04T05:33:07.971Z,1735
2018-07-04T05:33:48.550Z,1750
2018-07-04T05:34:29.121Z,1750
2018-07-04T05:35:09.721Z,1750
2018-07-04T05:35:50.228Z,1710
2018-07-04T05:36:31.112Z,1690
2018-07-04T05:37:11.772Z,1765
2018-07-04T05:37:52.350Z,1785
2018-07-04T05:38:32.919Z,1725
2018-07-04T05:39:13.508Z,1680
2018-07-04T05:39:54.091Z,1675
2018-07-04T05:40:34.799Z,1725
2018-07-04T05:41:15.366Z,1755
2018-07-04T05:41:55.931Z,1785
2018-07-04T05:42:36.500Z,1805
2018-07-04T05:43:17.086Z,1820
2018-07-04T05:43:57.653Z,1880
2018-07-04T05:44:38.253Z,1840
2018-07-04T05:45:18.807Z,1815
2018-07-04T05:45:59.394Z,1790
2018-07-04T05:46:40.772Z,1785
2018-07-04T05:47:21.332Z,1800
2018-07-04T05:48:01.915Z,1805
2018-07-04T05:48:42.492Z,1860
2018-07-04T05:49:23.111Z,1830
2018-07-04T05:50:03.943Z,1860
2018-07-04T05:50:44.669Z,1840
2018-07-04T05:51:25.609Z,1820
2018-07-04T05:52:06.286Z,1795
2018-07-04T05:52:46.860Z,1790
2018-07-04T05:53:27.422Z,1815
2018-07-04T05:54:08.311Z,1815
2018-07-04T05:54:48.865Z,1785
2018-07-04T05:55:29.432Z,1835
2018-07-04T05:56:10.826Z,1870
2018-07-04T05:56:50.777Z,1905
2018-07-04T05:57:31.352Z,1925
2018-07-04T05:58:11.916Z,1905
2018-07-04T05:58:52.485Z,1860
2018-07-04T05:59:33.067Z,1865
2018-07-04T06:00:13.854Z,1880
2018-07-04T06:00:54.430Z,1870
2018-07-04T06:01:34.991Z,1885
2018-07-04T06:02:15.556Z,1915
2018-07-04T06:02:56.268Z,1805
2018-07-04T06:03:36.942Z,1745
2018-07-04T06:04:17.551Z,1795
2018-07-04T06:04:58.141Z,1775
2018-07-04T06:05:38.733Z,1690
2018-07-04T06:06:19.332Z,1600
2018-07-04T06:06:59.918Z,1640
2018-07-04T06:07:40.669Z,1775
2018-07-04T06:08:21.393Z,1790
2018-07-04T06:09:01.984Z,1780
2018-07-04T06:09:42.610Z,1840
2018-07-04T06:10:23.189Z,1855
2018-07-04T06:11:03.981Z,1995
2018-07-04T06:11:44.511Z,2020
2018-07-04T06:12:25.206Z,2015
2018-07-04T06:13:06.037Z,1990
2018-07-04T06:13:46.620Z,1900
2018-07-04T06:14:27.189Z,1880
2018-07-04T06:15:07.823Z,1935
2018-07-04T06:15:48.344Z,2020
2018-07-04T06:16:28.917Z,1955
2018-07-04T06:17:09.488Z,1985
2018-07-04T06:17:50.167Z,1965
2018-07-04T06:18:30.729Z,1975
2018-07-04T06:19:11.274Z,1975
2018-07-04T06:19:51.848Z,2030
2018-07-04T06:20:32.427Z,1990
2018-07-04T06:21:13.039Z,1990
2018-07-04T06:21:53.624Z,1955
2018-07-04T06:22:34.275Z,1955
2018-07-04T06:23:14.922Z,1995
2018-07-04T06:23:55.513Z,1960
2018-07-04T06:24:36.107Z,1915
2018-07-04T06:25:16.701Z,1920
2018-07-04T06:25:57.260Z,1950
2018-07-04T06:26:37.833Z,1920
2018-07-04T06:27:18.407Z,1800
2018-07-04T06:27:59.186Z,1665
2018-07-04T06:28:39.764Z,1790
2018-07-04T06:29:20.340Z,1985
2018-07-04T06:30:00.904Z,2040
2018-07-04T06:30:41.486Z,1950
2018-07-04T06:31:22.066Z,1910
2018-07-04T06:32:02.646Z,1915
2018-07-04T06:32:43.216Z,1870
2018-07-04T06:33:23.838Z,1845
2018-07-04T06:34:04.407Z,1885
2018-07-04T06:34:44.978Z,1935
2018-07-04T06:35:25.542Z,1890
2018-07-04T06:36:06.122Z,1915
2018-07-04T06:36:46.691Z,1905
2018-07-04T06:37:27.439Z,1900
2018-07-04T06:38:08.012Z,1925
2018-07-04T06:38:48.591Z,1990
2018-07-04T06:39:29.178Z,2055
2018-07-04T06:40:09.755Z,2060
2018-07-04T06:40:50.445Z,2020
2018-07-04T06:41:31.109Z,2020
2018-07-04T06:42:11.677Z,1950
2018-07-04T06:42:52.269Z,1845
2018-07-04T06:43:32.843Z,1740
2018-07-04T06:44:13.417Z,1790
2018-07-04T06:44:54.235Z,1915
2018-07-04T06:45:34.857Z,2000
2018-07-04T06:46:15.464Z,1995
2018-07-04T06:46:56.077Z,2010
2018-07-04T06:47:36.651Z,2045
2018-07-04T06:48:17.229Z,2075
2018-07-04T06:48:57.891Z,2055
2018-07-04T06:49:38.424Z,2040
2018-07-04T06:50:19.008Z,1995
2018-07-04T06:50:59.588Z,1970
2018-07-04T06:51:40.170Z,1945
2018-07-04T06:52:20.839Z,1965
2018-07-04T06:53:01.482Z,2015
2018-07-04T06:53:42.060Z,2070
2018-07-04T06:54:22.963Z,2065
2018-07-04T06:55:03.452Z,2030
2018-07-04T06:55:44.128Z,1935
2018-07-04T06:56:24.712Z,1930
2018-07-04T06:57:05.283Z,1970
2018-07-04T06:57:45.864Z,2080
2018-07-04T06:58:26.820Z,2060
2018-07-04T06:59:07.526Z,1995
2018-07-04T06:59:48.119Z,1865
2018-07-04T07:00:29.274Z,1920
2018-07-04T07:01:09.836Z,1975
2018-07-04T07:01:50.420Z,2010
2018-07-04T07:02:31.033Z,2035
2018-07-04T07:03:11.612Z,1945
2018-07-04T07:03:52.261Z,1915
2018-07-04T07:04:32.841Z,1980
2018-07-04T07:05:13.409Z,1920
2018-07-04T07:05:53.997Z,1840
2018-07-04T07:06:34.567Z,1840
2018-07-04T07:07:15.164Z,1920
2018-07-04T07:07:55.731Z,1910
2018-07-04T07:08:36.391Z,1865
2018-07-04T07:09:16.904Z,1780
2018-07-04T07:09:57.471Z,1685
2018-07-04T07:10:38.180Z,1595
2018-07-04T07:11:18.857Z,1455
2018-07-04T07:11:59.438Z,1310
2018-07-04T07:12:40.013Z,1225
2018-07-04T07:13:20.607Z,1185
2018-07-04T07:14:01.190Z,1105
2018-07-04T07:14:41.765Z,1020
2018-07-04T07:15:22.361Z,935
2018-07-04T07:16:02.934Z,880
2018-07-04T07:16:43.509Z,825
2018-07-04T07:17:24.091Z,795
2018-07-04T07:18:04.676Z,760
2018-07-04T07:18:45.247Z,725
2018-07-04T07:19:25.837Z,695
2018-07-04T07:20:06.433Z,675
2018-07-04T07:20:47.005Z,645
2018-07-04T07:21:27.580Z,620
2018-07-04T07:22:08.160Z,600
2018-07-04T07:22:48.744Z,595
2018-07-04T07:23:29.352Z,585
2018-07-04T07:24:09.919Z,570
2018-07-04T07:24:50.505Z,560
2018-07-04T07:25:31.089Z,550
2018-07-04T07:26:11.680Z,545
2018-07-04T07:26:52.243Z,540
2018-07-04T07:27:32.853Z,540
2018-07-04T07:28:13.372Z,545
2018-07-04T07:28:53.971Z,540
2018-07-04T07:29:34.529Z,540
2018-07-04T07:30:15.099Z,545
2018-07-04T07:30:55.673Z,550
2018-07-04T07:31:36.240Z,555
2018-07-04T07:32:16.853Z,555
2018-07-04T07:32:57.409Z,550
2018-07-04T07:33:37.994Z,545
2018-07-04T07:34:18.726Z,545
2018-07-04T07:34:59.150Z,540
2018-07-04T07:35:39.751Z,540
2018-07-04T07:36:20.348Z,540
2018-07-04T07:37:00.929Z,540
2018-07-04T07:37:41.509Z,545
2018-07-04T07:38:22.082Z,535
2018-07-04T07:39:02.664Z,530
2018-07-04T07:39:43.239Z,525
2018-07-04T07:40:23.835Z,520
2018-07-04T07:41:04.463Z,520
2018-07-04T07:41:45.069Z,515
2018-07-04T07:42:25.602Z,515
2018-07-04T07:43:06.163Z,510
2018-07-04T07:43:46.717Z,510
2018-07-04T07:44:27.291Z,505
2018-07-04T07:45:07.877Z,505
2018-07-04T07:45:48.476Z,505
2018-07-04T07:46:29.059Z,510
2018-07-04T07:47:09.625Z,500
2018-07-04T07:47:50.199Z,500
2018-07-04T07:48:30.800Z,500
2018-07-04T07:49:11.380Z,500
2018-07-04T07:49:51.983Z,495
2018-07-04T07:50:32.551Z,500
2018-07-04T07:51:13.117Z,505
2018-07-04T07:51:53.684Z,515
2018-07-04T07:52:34.293Z,515
2018-07-04T07:53:14.876Z,515
2018-07-04T07:53:55.445Z,510
2018-07-04T07:54:36.034Z,505
2018-07-04T07:55:16.597Z,505
2018-07-04T07:55:57.161Z,505
2018-07-04T07:56:37.763Z,510
2018-07-04T07:57:18.338Z,505
2018-07-04T07:57:58.911Z,500
2018-07-04T07:58:39.496Z,490
2018-07-04T07:59:20.076Z,485
2018-07-04T08:00:00.661Z,480
2018-07-04T08:00:41.257Z,470
2018-07-04T08:01:21.811Z,460
2018-07-04T08:02:02.408Z,445
2018-07-04T08:02:43.007Z,435
2018-07-04T08:03:23.590Z,410
2018-07-04T08:04:04.152Z,375
2018-07-04T08:04:44.713Z,340
2018-07-04T08:05:25.296Z,325
2018-07-04T08:06:05.881Z,325
2018-07-04T08:06:46.459Z,325
2018-07-04T08:07:27.032Z,320
2018-07-04T08:08:07.643Z,315
2018-07-04T08:08:48.564Z,315
2018-07-04T08:09:29.136Z,310
2018-07-04T08:10:09.959Z,310
2018-07-04T08:10:50.379Z,305
2018-07-04T08:11:30.984Z,305
2018-07-04T08:12:11.550Z,305
2018-07-04T08:12:52.180Z,305
2018-07-04T08:13:32.748Z,305
2018-07-04T08:14:13.334Z,295
2018-07-04T08:14:53.897Z,295
2018-07-04T08:15:34.470Z,290
2018-07-04T08:16:15.050Z,290
2018-07-04T08:16:55.622Z,285
2018-07-04T08:17:36.189Z,285
2018-07-04T08:18:16.750Z,285
2018-07-04T08:18:57.356Z,280
2018-07-04T08:19:37.928Z,280
2018-07-04T08:20:18.499Z,275
2018-07-04T08:20:59.078Z,270
2018-07-04T08:21:39.632Z,265
2018-07-04T08:22:20.212Z,260
2018-07-04T08:23:00.788Z,260
2018-07-04T08:23:41.364Z,255
2018-07-04T08:24:21.949Z,250
2018-07-04T08:25:02.520Z,250
2018-07-04T08:25:43.098Z,250
2018-07-04T08:26:23.714Z,245
2018-07-04T08:27:04.236Z,240
2018-07-04T08:27:44.806Z,240
2018-07-04T08:28:25.382Z,240
2018-07-04T08:29:05.966Z,235
2018-07-04T08:29:46.547Z,230
2018-07-04T08:30:27.128Z,225
2018-07-04T08:31:07.703Z,225
2018-07-04T08:31:48.275Z,220
2018-07-04T08:32:28.842Z,215
2018-07-04T08:33:09.417Z,215
2018-07-04T08:33:49.991Z,210
2018-07-04T08:34:30.566Z,210
2018-07-04T08:35:11.137Z,205
2018-07-04T08:35:51.723Z,205
2018-07-04T08:36:32.295Z,200
2018-07-04T08:37:12.873Z,205
2018-07-04T08:37:53.441Z,200
2018-07-04T08:38:34.021Z,200
2018-07-04T08:39:14.658Z,195
2018-07-04T08:39:55.186Z,195
2018-07-04T08:40:35.745Z,190
2018-07-04T08:41:16.339Z,190
2018-07-04T08:41:56.913Z,185
2018-07-04T08:42:37.496Z,185
2018-07-04T08:43:18.070Z,185
2018-07-04T08:43:58.636Z,180
2018-07-04T08:44:39.216Z,180
2018-07-04T08:45:19.772Z,175
2018-07-04T08:46:00.349Z,175
2018-07-04T08:46:40.929Z,175
2018-07-04T08:47:21.494Z,175
2018-07-04T08:48:02.074Z,170
2018-07-04T08:48:42.648Z,170
2018-07-04T08:49:23.241Z,165
2018-07-04T08:50:03.789Z,165
2018-07-04T08:50:44.391Z,165
2018-07-04T08:51:25.060Z,160
2018-07-04T08:52:05.520Z,160
2018-07-04T08:52:46.139Z,160
2018-07-04T08:53:26.682Z,160
2018-07-04T08:54:07.252Z,155
2018-07-04T08:54:47.825Z,155
2018-07-04T08:55:28.402Z,155
2018-07-04T08:56:08.969Z,155
2018-07-04T08:56:49.535Z,150
2018-07-04T08:57:30.111Z,150
2018-07-04T08:58:10.735Z,155
2018-07-04T08:58:51.233Z,150
2018-07-04T08:59:31.801Z,150
2018-07-04T09:00:12.381Z,150
2018-07-04T09:00:52.953Z,150
2018-07-04T09:01:33.519Z,145
2018-07-04T09:02:14.088Z,145
2018-07-04T09:02:54.661Z,145
2018-07-04T09:03:35.229Z,145
2018-07-04T09:04:15.806Z,140
2018-07-04T09:04:56.376Z,140
2018-07-04T09:05:37.010Z,140
2018-07-04T09:06:17.528Z,140
2018-07-04T09:06:58.083Z,135
2018-07-04T09:07:38.650Z,135
2018-07-04T09:08:19.229Z,135
2018-07-04T09:08:59.813Z,135
2018-07-04T09:09:40.373Z,135
2018-07-04T09:10:20.947Z,130
2018-07-04T09:11:01.524Z,130
2018-07-04T09:11:42.112Z,130
2018-07-04T09:12:22.679Z,130
2018-07-04T09:13:03.254Z,130
2018-07-04T09:13:43.834Z,135
2018-07-04T09:14:24.407Z,125
2018-07-04T09:15:04.989Z,125
2018-07-04T09:15:45.563Z,125
2018-07-04T09:16:26.150Z,125
2018-07-04T09:17:06.720Z,125
2018-07-04T09:17:47.292Z,125
2018-07-04T09:18:27.862Z,125
2018-07-04T09:19:08.437Z,120
2018-07-04T09:19:49.003Z,120
2018-07-04T09:20:29.571Z,120
2018-07-04T09:21:10.150Z,120
2018-07-04T09:21:50.726Z,120
2018-07-04T09:22:31.303Z,120
2018-07-04T09:23:11.873Z,120
2018-07-04T09:23:52.446Z,120
2018-07-04T09:24:33.161Z,120
2018-07-04T09:25:13.707Z,120
2018-07-04T09:25:54.337Z,115
2018-07-04T09:26:35.000Z,115
2018-07-04T09:27:15.595Z,115
2018-07-04T09:27:56.155Z,115
2018-07-04T09:28:36.756Z,115
2018-07-04T09:29:17.320Z,115
2018-07-04T09:29:57.876Z,115
2018-07-04T09:30:38.440Z,115
2018-07-04T09:31:19.031Z,115
2018-07-04T09:31:59.596Z,115
2018-07-04T09:32:40.201Z,115
2018-07-04T09:33:20.729Z,115
2018-07-04T09:34:01.326Z,115
2018-07-04T09:34:41.908Z,115
2018-07-04T09:35:22.482Z,110
2018-07-04T09:36:03.042Z,110